Willow Creek, California
Current Conditions -  °F | °C
As of 7:53 AM on Saturday 25 Oct 2014 (Local Time) from KACV Reporting Station
Overcast Overcast  
Wind Chill: 61°   Ceiling: 4500
Heat Index: 61°   Visibility: 10mi
Dew Point: 53°   Wind: 23mph
Humidity: 75%   Direction: 160°SSE
Pressure: 29.61"   Gusts: 30mph
Location:  40.94°N, 123.63°W
Report Text: KACV 251453Z AUTO 16020G26KT 10SM BKN045 BKN060 OVC100 16/12 A2961 RMK AO2 PK WND 16034/1436 RAB28E41 SLP031 P0000 60000 T01610117 53004
Loading
Personal Weather Stations






























Interactive Weather Map
Tropical Storm Tracking
New forecast layout! Learn more

10-Day Weather Forecast

Advertisements
Track Severe Weather on mobile